Eden, Alabama
Current Conditions -  °F | °C
As of 11:55 PM on Friday 19 Dec 2014 (Local Time) from KASN Reporting Station
Moderate Rain Moderate Rain  
Wind Chill: 43°   Ceiling: 6000
Heat Index: 43°   Visibility: 5mi
Dew Point: 40°   Wind: 0mph
Humidity: 90%   Direction: NA
Pressure: 30.15"   Gusts: NA
Location:  33.5807°N, 86.3463°W
Report Text: KASN 200555Z AUTO 00000KT 5SM RA OVC060 06/05 A3015 RMK AO2 P0005 60014 T00600045 10083 20059 400961005
Loading
Personal Weather Stations






























Interactive Weather Map New forecast layout! Learn more

10-Day Weather Forecast

Advertisements
Track Severe Weather on mobile